Rock, Kansas
Current Conditions -  °F | °C
As of 9:58 PM on Tuesday 21 Oct 2014 (Local Time) from KIAB Reporting Station
Clear Clear  
Wind Chill: 67°   Ceiling: Unl
Heat Index: 67°   Visibility: 10mi
Dew Point: 61°   Wind: 10mph
Humidity: 79%   Direction: 120°ESE
Pressure: 30.06"   Gusts: NA
Location:  37.44°N, 97.01°W
Report Text: KIAB 220258Z AUTO 12009KT 10SM CLR 20/16 A3006 RMK AO2 SLP174 T01960159 52013 $
Loading
Personal Weather Stations






























Interactive Weather Map
Tropical Storm Tracking
New forecast layout! Learn more

10-Day Weather Forecast

Advertisements
Track Severe Weather on mobile